createdAt,value
2019-03-25T00:00:29.599Z,0.00
2019-03-25T00:01:29.626Z,0.00
2019-03-25T00:02:29.657Z,0.00
2019-03-25T00:03:29.688Z,0.00
2019-03-25T00:04:29.722Z,0.00
2019-03-25T00:05:29.749Z,0.00
2019-03-25T00:06:29.774Z,0.00
2019-03-25T00:07:29.804Z,0.00
2019-03-25T00:08:29.834Z,0.00
2019-03-25T00:09:29.862Z,0.00
2019-03-25T00:10:29.891Z,0.00
2019-03-25T00:11:29.922Z,0.00
2019-03-25T00:12:29.951Z,0.00
2019-03-25T00:13:29.979Z,0.00
2019-03-25T00:14:30.009Z,0.00
2019-03-25T00:15:30.038Z,0.00
2019-03-25T00:16:30.068Z,0.00
2019-03-25T00:17:30.097Z,0.00
2019-03-25T00:18:30.125Z,0.00
2019-03-25T00:19:30.155Z,0.00
2019-03-25T00:20:30.187Z,0.00
2019-03-25T00:21:30.215Z,0.00
2019-03-25T00:22:30.243Z,0.00
2019-03-25T00:23:30.272Z,0.00
2019-03-25T00:24:38.573Z,0.00
2019-03-25T00:25:30.344Z,0.00
2019-03-25T00:26:30.359Z,0.00
2019-03-25T00:27:30.389Z,0.00
2019-03-25T00:28:30.418Z,0.00
2019-03-25T00:29:30.446Z,0.00
2019-03-25T00:30:30.478Z,0.00
2019-03-25T00:31:30.505Z,0.00
2019-03-25T00:32:30.536Z,0.00
2019-03-25T00:33:30.581Z,0.00
2019-03-25T00:34:30.595Z,0.00
2019-03-25T00:35:30.621Z,0.00
2019-03-25T00:36:30.650Z,0.00
2019-03-25T00:37:30.680Z,0.00
2019-03-25T00:38:30.711Z,0.00
2019-03-25T00:39:30.738Z,0.00
2019-03-25T00:40:30.767Z,0.00
2019-03-25T00:41:30.797Z,0.00
2019-03-25T00:42:30.827Z,0.00
2019-03-25T00:43:30.853Z,0.00
2019-03-25T00:44:30.885Z,0.00
2019-03-25T00:45:30.911Z,0.00
2019-03-25T00:46:30.941Z,0.00
2019-03-25T00:47:30.972Z,0.00
2019-03-25T00:48:31.001Z,0.00
2019-03-25T00:49:31.032Z,0.00
2019-03-25T00:50:31.060Z,0.00
2019-03-25T00:51:31.088Z,0.00
2019-03-25T00:52:31.180Z,0.00
2019-03-25T00:53:31.146Z,0.00
2019-03-25T00:54:31.174Z,0.00
2019-03-25T00:55:31.204Z,0.00
2019-03-25T00:56:31.234Z,0.00
2019-03-25T00:57:31.265Z,0.00
2019-03-25T00:58:31.296Z,0.00
2019-03-25T00:59:31.319Z,0.00
2019-03-25T01:00:31.352Z,0.00
2019-03-25T01:01:31.378Z,0.00
2019-03-25T01:02:31.406Z,0.00
2019-03-25T01:03:31.441Z,0.00
2019-03-25T01:04:31.466Z,0.00
2019-03-25T01:05:31.494Z,0.00
2019-03-25T01:06:31.524Z,0.00
2019-03-25T01:07:31.555Z,0.00
2019-03-25T01:08:31.584Z,0.00
2019-03-25T01:09:31.612Z,0.00
2019-03-25T01:10:38.085Z,0.00
2019-03-25T01:12:33.648Z,0.00
2019-03-25T01:13:33.672Z,0.00
2019-03-25T01:15:35.762Z,0.00
2019-03-25T01:16:35.785Z,0.00
2019-03-25T01:18:37.809Z,0.00
2019-03-25T01:19:37.833Z,0.00
2019-03-25T01:21:29.789Z,0.00
2019-03-25T01:22:29.812Z,0.00
2019-03-25T01:24:31.921Z,0.00
2019-03-25T01:25:31.928Z,0.00
2019-03-25T01:27:34.133Z,0.00
2019-03-25T01:28:34.152Z,0.00
2019-03-25T01:30:36.366Z,0.00
2019-03-25T01:31:36.389Z,0.00
2019-03-25T01:33:38.529Z,0.00
2019-03-25T01:34:38.536Z,0.00
2019-03-25T01:36:40.540Z,0.00
2019-03-25T01:37:40.566Z,0.00
2019-03-25T01:39:42.595Z,0.00
2019-03-25T01:40:42.598Z,0.00
2019-03-25T01:42:44.599Z,0.00
2019-03-25T01:43:44.625Z,0.00
2019-03-25T01:45:46.627Z,0.00
2019-03-25T01:46:46.650Z,0.00
2019-03-25T01:48:48.672Z,0.00
2019-03-25T01:49:48.679Z,0.00
2019-03-25T01:51:50.682Z,0.00
2019-03-25T01:52:50.707Z,0.00
2019-03-25T01:54:52.726Z,0.00
2019-03-25T01:55:52.734Z,0.00
2019-03-25T01:57:54.736Z,0.00
2019-03-25T01:58:54.765Z,0.00
2019-03-25T02:00:46.705Z,0.00
2019-03-25T02:01:46.722Z,0.00
2019-03-25T02:03:48.748Z,0.00
2019-03-25T02:04:48.748Z,0.00
2019-03-25T02:06:50.753Z,0.00
2019-03-25T02:07:50.779Z,0.00
2019-03-25T02:09:52.798Z,0.00
2019-03-25T02:10:52.866Z,0.00
2019-03-25T02:12:54.809Z,0.00
2019-03-25T02:13:54.834Z,0.00
2019-03-25T02:15:47.459Z,0.00
2019-03-25T02:16:47.479Z,0.00
2019-03-25T02:17:47.506Z,0.00
2019-03-25T02:18:47.538Z,0.00
2019-03-25T02:19:47.565Z,0.00
2019-03-25T02:20:47.594Z,0.00
2019-03-25T02:21:47.625Z,0.00
2019-03-25T02:22:47.724Z,0.00
2019-03-25T02:23:47.680Z,0.00
2019-03-25T02:24:47.709Z,0.00
2019-03-25T02:25:47.738Z,0.00
2019-03-25T02:26:47.765Z,0.00
2019-03-25T02:27:47.799Z,0.00
2019-03-25T02:28:47.824Z,0.00
2019-03-25T02:29:47.857Z,0.00
2019-03-25T02:30:47.879Z,0.00
2019-03-25T02:31:47.934Z,0.00
2019-03-25T02:32:47.938Z,0.00
2019-03-25T02:33:47.966Z,0.00
2019-03-25T02:34:47.996Z,0.00
2019-03-25T02:35:48.025Z,0.00
2019-03-25T02:36:48.069Z,0.00
2019-03-25T02:37:48.081Z,0.00
2019-03-25T02:38:48.116Z,0.00
2019-03-25T02:39:48.137Z,0.00
2019-03-25T02:40:48.179Z,0.00
2019-03-25T02:41:48.196Z,0.00
2019-03-25T02:42:48.225Z,0.00
2019-03-25T02:43:48.256Z,0.00
2019-03-25T02:44:48.280Z,0.00
2019-03-25T02:45:48.308Z,0.00
2019-03-25T02:46:48.351Z,0.00
2019-03-25T02:47:48.366Z,0.00
2019-03-25T02:48:48.395Z,0.00
2019-03-25T02:49:48.423Z,0.00
2019-03-25T02:50:48.454Z,0.00
2019-03-25T02:51:48.482Z,0.00
2019-03-25T02:52:48.508Z,0.00
2019-03-25T02:53:48.557Z,0.00
2019-03-25T02:54:48.565Z,0.00
2019-03-25T02:55:48.594Z,0.00
2019-03-25T02:56:48.621Z,0.00
2019-03-25T02:57:48.653Z,0.00
2019-03-25T02:58:48.695Z,0.00
2019-03-25T02:59:48.708Z,0.00
2019-03-25T03:00:48.735Z,0.00
2019-03-25T03:01:48.765Z,0.00
2019-03-25T03:02:48.793Z,0.00
2019-03-25T03:03:48.820Z,0.00
2019-03-25T03:04:48.849Z,0.00
2019-03-25T03:05:48.878Z,0.00
2019-03-25T03:06:48.906Z,0.00
2019-03-25T03:07:48.938Z,0.00
2019-03-25T03:08:48.963Z,0.00
2019-03-25T03:09:48.992Z,0.00
2019-03-25T03:10:49.023Z,0.00
2019-03-25T03:11:49.049Z,0.00
2019-03-25T03:12:49.125Z,0.00
2019-03-25T03:13:49.104Z,0.00
2019-03-25T03:14:49.130Z,0.00
2019-03-25T03:15:49.165Z,0.00
2019-03-25T03:16:49.187Z,0.00
2019-03-25T03:17:49.216Z,0.00
2019-03-25T03:18:49.244Z,0.00
2019-03-25T03:19:49.274Z,0.00
2019-03-25T03:20:49.301Z,0.00
2019-03-25T03:21:49.337Z,0.00
2019-03-25T03:22:49.357Z,0.00
2019-03-25T03:23:49.396Z,0.00
2019-03-25T03:24:49.415Z,0.00
2019-03-25T03:25:57.009Z,0.00
2019-03-25T03:26:49.469Z,0.00
2019-03-25T03:27:49.505Z,0.00
2019-03-25T03:28:49.531Z,0.00
2019-03-25T03:29:49.555Z,0.00
2019-03-25T03:30:49.584Z,0.00
2019-03-25T03:31:49.612Z,0.00
2019-03-25T03:32:49.643Z,0.00
2019-03-25T03:33:49.666Z,0.00
2019-03-25T03:34:49.705Z,0.00
2019-03-25T03:35:49.723Z,0.00
2019-03-25T03:36:49.750Z,0.00
2019-03-25T03:37:49.791Z,0.00
2019-03-25T03:38:49.806Z,0.00
2019-03-25T03:39:49.842Z,0.00
2019-03-25T03:40:49.861Z,0.00
2019-03-25T03:41:49.891Z,0.00
2019-03-25T03:42:49.935Z,0.00
2019-03-25T03:43:49.956Z,0.00
2019-03-25T03:44:49.982Z,0.00
2019-03-25T03:45:50.007Z,0.00
2019-03-25T03:46:50.034Z,0.00
2019-03-25T03:47:50.062Z,0.00
2019-03-25T03:48:50.090Z,0.00
2019-03-25T03:49:50.119Z,0.00
2019-03-25T03:50:50.147Z,0.00
2019-03-25T03:51:50.172Z,0.00
2019-03-25T03:52:50.201Z,0.00
2019-03-25T03:53:50.230Z,0.00
2019-03-25T03:54:50.254Z,0.00
2019-03-25T03:55:50.302Z,0.00
2019-03-25T03:56:50.316Z,0.00
2019-03-25T03:57:50.343Z,0.00
2019-03-25T03:58:50.367Z,0.00
2019-03-25T03:59:50.396Z,0.00
2019-03-25T04:00:50.447Z,0.00
2019-03-25T04:01:50.466Z,0.00
2019-03-25T04:02:50.480Z,0.00
2019-03-25T04:03:50.508Z,0.00
2019-03-25T04:04:50.535Z,0.00
2019-03-25T04:05:50.567Z,0.00
2019-03-25T04:06:50.593Z,0.00
2019-03-25T04:07:50.620Z,0.00
2019-03-25T04:08:50.648Z,0.00
2019-03-25T04:09:50.675Z,0.00
2019-03-25T04:10:50.704Z,0.00
2019-03-25T04:11:50.733Z,0.00
2019-03-25T04:12:50.760Z,0.00
2019-03-25T04:13:50.787Z,0.00
2019-03-25T04:14:50.816Z,0.00
2019-03-25T04:15:50.847Z,0.00
2019-03-25T04:16:50.872Z,0.00
2019-03-25T04:17:50.905Z,0.00
2019-03-25T04:18:50.931Z,0.00
2019-03-25T04:19:50.968Z,0.00
2019-03-25T04:20:50.990Z,0.00
2019-03-25T04:21:51.013Z,0.00
2019-03-25T04:22:51.038Z,0.00
2019-03-25T04:23:51.075Z,0.00
2019-03-25T04:24:51.094Z,0.00
2019-03-25T04:25:51.130Z,0.00
2019-03-25T04:26:51.151Z,0.00
2019-03-25T04:27:51.178Z,0.00
2019-03-25T04:28:51.211Z,0.00
2019-03-25T04:29:51.235Z,0.00
2019-03-25T04:30:51.262Z,0.00
2019-03-25T04:31:51.290Z,0.00
2019-03-25T04:32:51.317Z,0.00
2019-03-25T04:33:51.350Z,0.00
2019-03-25T04:34:51.373Z,0.00
2019-03-25T04:35:51.418Z,0.00
2019-03-25T04:36:51.430Z,0.00
2019-03-25T04:37:51.457Z,0.00
2019-03-25T04:38:51.486Z,0.00
2019-03-25T04:39:51.515Z,0.00
2019-03-25T04:40:51.562Z,4.00
2019-03-25T04:41:51.570Z,4.00
2019-03-25T04:42:51.596Z,0.00
2019-03-25T04:43:53.397Z,0.00
2019-03-25T04:44:51.653Z,4.00
2019-03-25T04:45:51.681Z,4.00
2019-03-25T04:46:51.719Z,0.00
2019-03-25T04:47:51.740Z,4.00
2019-03-25T04:48:51.764Z,4.00
2019-03-25T04:49:51.791Z,8.00
2019-03-25T04:50:51.820Z,4.00
2019-03-25T04:51:51.853Z,8.00
2019-03-25T04:52:51.876Z,4.00
2019-03-25T04:53:51.907Z,4.00
2019-03-25T04:54:51.932Z,4.00
2019-03-25T04:55:51.959Z,8.00
2019-03-25T04:56:52.007Z,8.00
2019-03-25T04:57:52.015Z,8.00
2019-03-25T04:58:52.043Z,4.00
2019-03-25T04:59:52.071Z,8.00
2019-03-25T05:00:52.098Z,4.00
2019-03-25T05:01:52.126Z,8.00
2019-03-25T05:02:52.153Z,4.00
2019-03-25T05:03:52.181Z,8.00
2019-03-25T05:04:52.209Z,8.00
2019-03-25T05:05:52.238Z,8.00
2019-03-25T05:06:52.266Z,8.00
2019-03-25T05:07:52.296Z,8.00
2019-03-25T05:08:52.320Z,12.00
2019-03-25T05:09:52.348Z,16.00
2019-03-25T05:10:52.378Z,16.00
2019-03-25T05:11:52.404Z,20.00
2019-03-25T05:12:52.432Z,24.00
2019-03-25T05:13:52.460Z,24.00
2019-03-25T05:14:52.489Z,28.00
2019-03-25T05:15:52.517Z,32.00
2019-03-25T05:16:52.542Z,32.00
2019-03-25T05:17:52.571Z,36.00
2019-03-25T05:18:52.600Z,32.00
2019-03-25T05:19:52.628Z,32.00
2019-03-25T05:20:52.677Z,32.00
2019-03-25T05:21:52.682Z,32.00
2019-03-25T05:22:52.710Z,32.00
2019-03-25T05:23:52.736Z,32.00
2019-03-25T05:24:52.764Z,32.00
2019-03-25T05:25:52.794Z,40.00
2019-03-25T05:26:52.821Z,44.00
2019-03-25T05:27:52.848Z,56.00
2019-03-25T05:28:52.876Z,64.00
2019-03-25T05:29:52.903Z,60.00
2019-03-25T05:30:52.933Z,52.00
2019-03-25T05:31:52.962Z,48.00
2019-03-25T05:32:52.988Z,44.00
2019-03-25T05:33:53.013Z,40.00
2019-03-25T05:34:53.042Z,52.00
2019-03-25T05:35:53.070Z,64.00
2019-03-25T05:36:53.098Z,76.00
2019-03-25T05:37:53.125Z,96.00
2019-03-25T05:38:53.153Z,104.00
2019-03-25T05:39:53.182Z,112.00
2019-03-25T05:40:53.207Z,120.00
2019-03-25T05:41:53.238Z,128.00
2019-03-25T05:42:53.266Z,120.00
2019-03-25T05:43:53.292Z,96.00
2019-03-25T05:44:53.326Z,72.00
2019-03-25T05:45:53.349Z,64.00
2019-03-25T05:46:53.375Z,52.00
2019-03-25T05:47:53.408Z,40.00
2019-03-25T05:48:53.447Z,32.00
2019-03-25T05:49:53.462Z,32.00
2019-03-25T05:50:53.492Z,20.00
2019-03-25T05:51:53.518Z,20.00
2019-03-25T05:52:53.542Z,16.00
2019-03-25T05:53:53.570Z,16.00
2019-03-25T05:54:53.622Z,20.00
2019-03-25T05:55:53.626Z,20.00
2019-03-25T05:57:01.934Z,28.00
2019-03-25T05:57:53.681Z,32.00
2019-03-25T05:58:53.711Z,40.00
2019-03-25T05:59:53.736Z,52.00
2019-03-25T06:00:53.765Z,68.00
2019-03-25T06:01:53.796Z,80.00
2019-03-25T06:02:53.820Z,88.00
2019-03-25T06:03:53.846Z,96.00
2019-03-25T06:04:53.873Z,112.00
2019-03-25T06:05:53.901Z,152.00
2019-03-25T06:06:53.933Z,172.00
2019-03-25T06:07:53.960Z,164.00
2019-03-25T06:08:53.984Z,148.00
2019-03-25T06:09:54.013Z,112.00
2019-03-25T06:10:54.040Z,100.00
2019-03-25T06:11:54.071Z,84.00
2019-03-25T06:12:54.107Z,80.00
2019-03-25T06:13:54.122Z,60.00
2019-03-25T06:14:54.149Z,52.00
2019-03-25T06:15:54.178Z,60.00
2019-03-25T06:16:54.206Z,56.00
2019-03-25T06:17:54.232Z,52.00
2019-03-25T06:18:54.259Z,48.00
2019-03-25T06:19:54.289Z,44.00
2019-03-25T06:20:54.315Z,52.00
2019-03-25T06:21:54.344Z,56.00
2019-03-25T06:22:54.370Z,52.00
2019-03-25T06:23:54.397Z,56.00
2019-03-25T06:24:54.424Z,60.00
2019-03-25T06:25:54.452Z,60.00
2019-03-25T06:26:54.481Z,64.00
2019-03-25T06:27:54.506Z,60.00
2019-03-25T06:28:54.539Z,64.00
2019-03-25T06:29:54.562Z,56.00
2019-03-25T06:30:54.589Z,56.00
2019-03-25T06:31:54.618Z,56.00
2019-03-25T06:32:54.645Z,56.00
2019-03-25T06:33:54.671Z,52.00
2019-03-25T06:34:54.699Z,56.00
2019-03-25T06:35:54.728Z,56.00
2019-03-25T06:36:54.756Z,52.00
2019-03-25T06:37:54.781Z,52.00
2019-03-25T06:38:54.811Z,60.00
2019-03-25T06:39:54.838Z,60.00
2019-03-25T06:40:54.865Z,64.00
2019-03-25T06:41:54.893Z,60.00
2019-03-25T06:42:54.919Z,60.00
2019-03-25T06:43:54.988Z,64.00
2019-03-25T06:44:54.972Z,68.00
2019-03-25T06:45:55.001Z,80.00
2019-03-25T06:46:55.030Z,80.00
2019-03-25T06:47:55.056Z,84.00
2019-03-25T06:48:55.086Z,88.00
2019-03-25T06:49:55.108Z,92.00
2019-03-25T06:50:55.137Z,96.00
2019-03-25T06:51:55.175Z,92.00
2019-03-25T06:52:55.196Z,108.00
2019-03-25T06:53:55.217Z,100.00
2019-03-25T06:54:55.251Z,100.00
2019-03-25T06:55:55.273Z,96.00
2019-03-25T06:56:55.299Z,96.00
2019-03-25T06:57:55.326Z,96.00
2019-03-25T06:58:55.353Z,92.00
2019-03-25T06:59:55.381Z,92.00
2019-03-25T07:00:55.408Z,84.00
2019-03-25T07:01:55.436Z,80.00
2019-03-25T07:02:55.460Z,84.00
2019-03-25T07:03:55.490Z,92.00
2019-03-25T07:04:55.517Z,108.00
2019-03-25T07:05:55.542Z,104.00
2019-03-25T07:06:55.573Z,112.00
2019-03-25T07:07:55.598Z,108.00
2019-03-25T07:08:55.624Z,136.00
2019-03-25T07:09:55.651Z,144.00
2019-03-25T07:10:55.690Z,164.00
2019-03-25T07:11:55.719Z,172.00
2019-03-25T07:12:55.733Z,164.00
2019-03-25T07:13:55.762Z,164.00
2019-03-25T07:14:55.788Z,196.00
2019-03-25T07:15:55.817Z,212.00
2019-03-25T07:16:55.841Z,224.00
2019-03-25T07:17:55.870Z,180.00
2019-03-25T07:18:55.897Z,172.00
2019-03-25T07:19:55.954Z,140.00
2019-03-25T07:20:55.950Z,128.00
2019-03-25T07:21:55.976Z,152.00
2019-03-25T07:22:56.003Z,160.00
2019-03-25T07:23:56.031Z,160.00
2019-03-25T07:24:56.058Z,148.00
2019-03-25T07:25:56.083Z,148.00
2019-03-25T07:26:56.112Z,152.00
2019-03-25T07:27:56.138Z,208.00
2019-03-25T07:28:56.166Z,272.00
2019-03-25T07:29:56.192Z,316.00
2019-03-25T07:30:56.223Z,316.00
2019-03-25T07:31:56.246Z,248.00
2019-03-25T07:32:56.275Z,272.00
2019-03-25T07:33:56.300Z,272.00
2019-03-25T07:34:56.338Z,240.00
2019-03-25T07:35:56.355Z,228.00
2019-03-25T07:36:56.383Z,244.00
2019-03-25T07:37:56.410Z,276.00
2019-03-25T07:38:56.435Z,256.00
2019-03-25T07:39:56.464Z,260.00
2019-03-25T07:40:56.491Z,224.00
2019-03-25T07:41:56.517Z,200.00
2019-03-25T07:42:56.549Z,208.00
2019-03-25T07:43:56.574Z,228.00
2019-03-25T07:44:56.602Z,236.00
2019-03-25T07:45:56.625Z,360.00
2019-03-25T07:46:56.655Z,356.00
2019-03-25T07:47:56.686Z,428.00
2019-03-25T07:48:56.707Z,304.00
2019-03-25T07:49:56.738Z,340.00
2019-03-25T07:50:56.762Z,296.00
2019-03-25T07:51:56.791Z,264.00
2019-03-25T07:52:56.824Z,288.00
2019-03-25T07:53:56.845Z,364.00
2019-03-25T07:54:56.877Z,352.00
2019-03-25T07:55:56.926Z,404.00
2019-03-25T07:56:56.938Z,448.00
2019-03-25T07:57:56.960Z,484.00
2019-03-25T07:58:56.982Z,528.00
2019-03-25T07:59:57.025Z,608.00
2019-03-25T08:00:57.037Z,436.00
2019-03-25T08:01:57.064Z,320.00
2019-03-25T08:02:57.100Z,340.00
2019-03-25T08:03:57.128Z,464.00
2019-03-25T08:04:57.201Z,468.00
2019-03-25T08:05:57.184Z,428.00
2019-03-25T08:06:57.202Z,408.00
2019-03-25T08:07:57.257Z,384.00
2019-03-25T08:09:03.763Z,396.00
2019-03-25T08:09:57.285Z,340.00
2019-03-25T08:10:57.313Z,288.00
2019-03-25T08:11:57.351Z,296.00
2019-03-25T08:12:57.443Z,380.00
2019-03-25T08:13:57.395Z,584.00
2019-03-25T08:14:57.439Z,624.00
2019-03-25T08:15:57.468Z,560.00
2019-03-25T08:16:57.479Z,480.00
2019-03-25T08:17:57.509Z,484.00
2019-03-25T08:18:57.531Z,580.00
2019-03-25T08:19:57.574Z,488.00
2019-03-25T08:20:57.590Z,424.00
2019-03-25T08:21:57.615Z,484.00
2019-03-25T08:22:57.642Z,664.00
2019-03-25T08:23:57.671Z,592.00
2019-03-25T08:24:57.698Z,680.00
2019-03-25T08:25:57.732Z,912.00
2019-03-25T08:26:57.758Z,684.00
2019-03-25T08:28:00.113Z,700.00
2019-03-25T08:28:57.809Z,736.00
2019-03-25T08:29:57.841Z,652.00
2019-03-25T08:30:57.867Z,652.00
2019-03-25T08:31:59.075Z,616.00
2019-03-25T08:32:57.922Z,432.00
2019-03-25T08:33:57.946Z,384.00
2019-03-25T08:34:57.974Z,384.00
2019-03-25T08:35:58.002Z,332.00
2019-03-25T08:36:58.031Z,328.00
2019-03-25T08:37:58.060Z,308.00
2019-03-25T08:38:58.084Z,296.00
2019-03-25T08:39:58.111Z,308.00
2019-03-25T08:40:58.139Z,340.00
2019-03-25T08:41:58.167Z,396.00
2019-03-25T08:42:58.206Z,400.00
2019-03-25T08:43:58.224Z,384.00
2019-03-25T08:44:58.250Z,360.00
2019-03-25T08:45:58.280Z,520.00
2019-03-25T08:46:58.307Z,756.00
2019-03-25T08:47:58.335Z,1260.00
2019-03-25T08:48:58.364Z,1416.00
2019-03-25T08:49:58.389Z,1436.00
2019-03-25T08:50:58.421Z,1688.00
2019-03-25T08:51:58.446Z,1796.00
2019-03-25T08:52:58.472Z,1800.00
2019-03-25T08:53:58.501Z,1584.00
2019-03-25T08:54:58.528Z,1580.00
2019-03-25T08:55:58.557Z,1176.00
2019-03-25T08:56:58.584Z,652.00
2019-03-25T08:57:58.615Z,576.00
2019-03-25T08:58:58.640Z,552.00
2019-03-25T08:59:58.671Z,532.00
2019-03-25T09:00:58.696Z,532.00
2019-03-25T09:01:58.726Z,552.00
2019-03-25T09:02:58.754Z,640.00
2019-03-25T09:03:58.781Z,1104.00
2019-03-25T09:04:58.807Z,1200.00
2019-03-25T09:05:59.570Z,780.00
2019-03-25T09:06:58.865Z,508.00
2019-03-25T09:07:58.897Z,536.00
2019-03-25T09:08:58.920Z,568.00
2019-03-25T09:09:58.948Z,548.00
2019-03-25T09:10:58.976Z,572.00
2019-03-25T09:11:59.004Z,728.00
2019-03-25T09:12:59.040Z,1268.00
2019-03-25T09:13:59.060Z,1512.00
2019-03-25T09:14:59.088Z,1084.00
2019-03-25T09:15:59.118Z,712.00
2019-03-25T09:17:00.639Z,704.00
2019-03-25T09:17:59.177Z,784.00
2019-03-25T09:18:59.209Z,924.00
2019-03-25T09:19:59.231Z,948.00
2019-03-25T09:20:59.258Z,888.00
2019-03-25T09:21:59.294Z,872.00
2019-03-25T09:22:59.314Z,796.00
2019-03-25T09:23:59.343Z,752.00
2019-03-25T09:24:59.371Z,848.00
2019-03-25T09:25:59.400Z,860.00
2019-03-25T09:26:59.427Z,776.00
2019-03-25T09:27:59.458Z,928.00
2019-03-25T09:28:59.493Z,1032.00
2019-03-25T09:29:59.513Z,1160.00
2019-03-25T09:30:59.547Z,1492.00
2019-03-25T09:31:59.575Z,1392.00
2019-03-25T09:32:59.600Z,1620.00
2019-03-25T09:33:59.626Z,1472.00
2019-03-25T09:34:59.655Z,1356.00
2019-03-25T09:35:59.768Z,1404.00
2019-03-25T09:36:59.713Z,1400.00
2019-03-25T09:37:59.744Z,1532.00
2019-03-25T09:38:59.783Z,2016.00
2019-03-25T09:39:59.798Z,2180.00
2019-03-25T09:40:59.825Z,2036.00
2019-03-25T09:41:59.854Z,1804.00
2019-03-25T09:42:59.885Z,1772.00
2019-03-25T09:43:59.914Z,1644.00
2019-03-25T09:44:59.939Z,1744.00
2019-03-25T09:45:59.969Z,1640.00
2019-03-25T09:46:59.997Z,1456.00
2019-03-25T09:48:00.027Z,1380.00
2019-03-25T09:49:00.057Z,1236.00
2019-03-25T09:50:00.110Z,1140.00
2019-03-25T09:51:00.112Z,976.00
2019-03-25T09:52:00.143Z,920.00
2019-03-25T09:53:00.169Z,908.00
2019-03-25T09:54:00.198Z,728.00
2019-03-25T09:55:00.382Z,772.00
2019-03-25T09:56:00.257Z,868.00
2019-03-25T09:57:00.287Z,892.00
2019-03-25T09:58:00.315Z,924.00
2019-03-25T09:59:00.348Z,776.00
2019-03-25T10:00:00.374Z,620.00
2019-03-25T10:01:00.405Z,668.00
2019-03-25T10:02:09.307Z,872.00
2019-03-25T10:04:11.956Z,816.00
2019-03-25T10:05:04.482Z,780.00
2019-03-25T10:07:15.731Z,748.00
2019-03-25T10:08:08.534Z,988.00
2019-03-25T10:10:12.594Z,1444.00
2019-03-25T10:11:12.627Z,1932.00
2019-03-25T10:13:16.683Z,2192.00
2019-03-25T10:14:16.670Z,1916.00
2019-03-25T10:16:20.737Z,1872.00
2019-03-25T10:17:20.726Z,1840.00
2019-03-25T10:19:25.821Z,2116.00
2019-03-25T10:20:24.813Z,1884.00
2019-03-25T10:22:28.884Z,1592.00
2019-03-25T10:23:36.931Z,1312.00
2019-03-25T10:25:32.895Z,2136.00
2019-03-25T10:26:32.919Z,2112.00
2019-03-25T10:28:48.072Z,808.00
2019-03-25T10:29:36.970Z,1052.00
2019-03-25T10:31:29.920Z,2112.00
2019-03-25T10:32:29.940Z,2276.00
2019-03-25T10:34:33.964Z,2056.00
2019-03-25T10:35:34.031Z,2628.00
2019-03-25T10:37:38.030Z,1968.00
2019-03-25T10:38:38.044Z,1992.00
2019-03-25T10:40:42.075Z,2376.00
2019-03-25T10:41:42.101Z,2792.00
2019-03-25T10:43:46.129Z,4212.00
2019-03-25T10:44:46.155Z,4532.00
2019-03-25T10:46:50.185Z,3724.00
2019-03-25T10:47:50.206Z,3636.00
2019-03-25T10:49:54.240Z,3268.00
2019-03-25T10:50:54.261Z,4164.00
2019-03-25T10:52:58.287Z,4744.00
2019-03-25T10:53:58.315Z,4516.00
2019-03-25T10:56:02.353Z,4236.00
2019-03-25T10:57:02.377Z,4220.00
2019-03-25T10:59:06.406Z,4096.00
2019-03-25T11:00:06.434Z,3840.00
2019-03-25T11:02:10.482Z,3836.00
2019-03-25T11:03:10.490Z,3896.00
2019-03-25T11:05:14.531Z,4828.00
2019-03-25T11:06:14.556Z,4592.00
2019-03-25T11:08:18.581Z,4992.00
2019-03-25T11:09:18.608Z,4668.00
2019-03-25T11:11:11.559Z,3680.00
2019-03-25T11:12:11.583Z,3252.00
2019-03-25T11:14:15.617Z,2708.00
2019-03-25T11:15:15.645Z,1888.00
2019-03-25T11:17:19.691Z,1904.00
2019-03-25T11:18:19.703Z,2504.00
2019-03-25T11:20:23.737Z,3552.00
2019-03-25T11:21:23.759Z,3524.00
2019-03-25T11:23:27.792Z,2092.00
2019-03-25T11:24:27.821Z,1400.00
2019-03-25T11:26:31.854Z,764.00
2019-03-25T11:27:31.879Z,704.00
2019-03-25T11:29:35.908Z,788.00
2019-03-25T11:30:35.938Z,676.00
2019-03-25T11:32:39.970Z,548.00
2019-03-25T11:33:39.997Z,700.00
2019-03-25T11:35:44.027Z,1048.00
2019-03-25T11:36:44.055Z,1600.00
2019-03-25T11:38:48.084Z,3024.00
2019-03-25T11:39:48.117Z,3652.00
2019-03-25T11:41:52.142Z,4104.00
2019-03-25T11:42:52.171Z,3448.00
2019-03-25T11:44:56.200Z,2672.00
2019-03-25T11:45:56.230Z,2552.00
2019-03-25T11:48:00.258Z,2660.00
2019-03-25T11:49:00.284Z,3024.00
2019-03-25T11:50:53.234Z,3240.00
2019-03-25T11:51:53.268Z,3252.00
2019-03-25T11:53:58.717Z,3016.00
2019-03-25T11:54:57.317Z,2888.00
2019-03-25T11:57:01.352Z,3304.00
2019-03-25T11:58:01.381Z,3552.00
2019-03-25T12:00:05.415Z,3916.00
2019-03-25T12:01:05.442Z,4108.00
2019-03-25T12:03:09.477Z,4796.00
2019-03-25T12:04:10.601Z,4896.00
2019-03-25T12:06:20.684Z,4480.00
2019-03-25T12:07:13.564Z,4312.00
2019-03-25T12:09:17.616Z,3772.00
2019-03-25T12:10:17.624Z,3148.00
2019-03-25T12:12:21.655Z,2932.00
2019-03-25T12:13:21.682Z,2968.00
2019-03-25T12:15:25.718Z,3216.00
2019-03-25T12:16:25.742Z,3628.00
2019-03-25T12:18:29.792Z,3468.00
2019-03-25T12:19:29.804Z,4016.00
2019-03-25T12:21:22.756Z,2760.00
2019-03-25T12:22:22.786Z,2532.00
2019-03-25T12:24:26.837Z,1864.00
2019-03-25T12:25:26.846Z,1692.00
2019-03-25T12:27:30.915Z,1216.00
2019-03-25T12:28:30.917Z,1256.00
2019-03-25T12:30:34.951Z,1544.00
2019-03-25T12:31:34.972Z,1540.00
2019-03-25T12:33:39.028Z,1188.00
2019-03-25T12:34:39.038Z,1084.00
2019-03-25T12:36:43.081Z,912.00
2019-03-25T12:37:43.104Z,1096.00
2019-03-25T12:39:47.150Z,1704.00
2019-03-25T12:40:47.163Z,2716.00
2019-03-25T12:42:51.194Z,3832.00
2019-03-25T12:43:51.222Z,3956.00
2019-03-25T12:45:55.256Z,3748.00
2019-03-25T12:46:55.281Z,2988.00
2019-03-25T12:48:59.333Z,3160.00
2019-03-25T12:49:59.345Z,3372.00
2019-03-25T12:52:03.378Z,3188.00
2019-03-25T12:53:03.410Z,3196.00
2019-03-25T12:55:07.499Z,3060.00
2019-03-25T12:56:07.503Z,2996.00
2019-03-25T12:58:11.557Z,2820.00
2019-03-25T12:59:11.565Z,2684.00
2019-03-25T13:01:04.519Z,2008.00
2019-03-25T13:02:04.548Z,1980.00
2019-03-25T13:04:08.599Z,1664.00
2019-03-25T13:05:08.611Z,1840.00
2019-03-25T13:07:12.653Z,2108.00
2019-03-25T13:08:12.683Z,2236.00
2019-03-25T13:10:16.757Z,2312.00
2019-03-25T13:11:16.747Z,2340.00
2019-03-25T13:13:18.883Z,2624.00
2019-03-25T13:14:18.897Z,2728.00
2019-03-25T13:16:22.938Z,2680.00
2019-03-25T13:17:22.962Z,2644.00
2019-03-25T13:19:27.016Z,2632.00
2019-03-25T13:20:27.027Z,2768.00
2019-03-25T13:22:30.088Z,2680.00
2019-03-25T13:23:30.115Z,3024.00
2019-03-25T13:25:34.167Z,2856.00
2019-03-25T13:26:34.177Z,2792.00
2019-03-25T13:28:38.246Z,2612.00
2019-03-25T13:29:38.244Z,2480.00
2019-03-25T13:31:31.202Z,1996.00
2019-03-25T13:32:31.232Z,2052.00
2019-03-25T13:34:35.282Z,1152.00
2019-03-25T13:35:35.296Z,864.00
2019-03-25T13:37:39.344Z,364.00
2019-03-25T13:38:39.358Z,268.00
2019-03-25T13:40:43.402Z,236.00
2019-03-25T13:41:43.425Z,256.00
2019-03-25T13:43:47.476Z,320.00
2019-03-25T13:44:47.485Z,412.00
2019-03-25T13:46:51.518Z,592.00
2019-03-25T13:47:51.551Z,716.00
2019-03-25T13:49:56.610Z,1160.00
2019-03-25T13:50:56.623Z,1700.00
2019-03-25T13:53:00.652Z,1752.00
2019-03-25T13:54:00.682Z,1520.00
2019-03-25T13:56:04.713Z,860.00
2019-03-25T13:57:04.738Z,720.00
2019-03-25T13:59:08.788Z,708.00
2019-03-25T14:00:08.796Z,700.00
2019-03-25T14:02:12.830Z,696.00
2019-03-25T14:03:12.872Z,632.00
2019-03-25T14:05:16.914Z,552.00
2019-03-25T14:06:16.918Z,560.00
2019-03-25T14:08:20.954Z,804.00
2019-03-25T14:09:20.975Z,808.00
2019-03-25T14:11:13.925Z,664.00
2019-03-25T14:12:13.953Z,540.00
2019-03-25T14:14:18.014Z,540.00
2019-03-25T14:15:18.020Z,632.00
2019-03-25T14:17:22.053Z,948.00
2019-03-25T14:18:22.079Z,1104.00
2019-03-25T14:20:26.137Z,1376.00
2019-03-25T14:21:26.147Z,1484.00
2019-03-25T14:23:30.181Z,1740.00
2019-03-25T14:24:30.209Z,1860.00
2019-03-25T14:26:34.236Z,2080.00
2019-03-25T14:27:34.263Z,2160.00
2019-03-25T14:29:38.311Z,2168.00
2019-03-25T14:30:38.322Z,2176.00
2019-03-25T14:32:42.351Z,2156.00
2019-03-25T14:33:42.379Z,2140.00
2019-03-25T14:35:46.427Z,2136.00
2019-03-25T14:36:46.435Z,2128.00
2019-03-25T14:38:50.462Z,2032.00
2019-03-25T14:39:50.490Z,1984.00
2019-03-25T14:41:54.518Z,1900.00
2019-03-25T14:42:54.547Z,1916.00